Time;durP1;ratioP1;P1;durP2;ratioP2;P2;SDS_P1;SDS_P2;PMS_P1;PMS_P2;Temp;Humidity;BMP_temperature;BMP_pressure;BME280_temperature;BME280_humidity;BME280_pressure;Samples;Min_cycle;Max_cycle;Signal;HPM_P1;HPM_P2
2022/03/29 00:01:54;;;;;;;;;34.25;32.25;;;;;16.57;33.14;99361.66;5013140;28;8974;-75
2022/03/29 00:04:24;;;;;;;;;30.75;30.25;;;;;16.44;33.45;99358.50;5046309;28;8953;-75
2022/03/29 00:06:54;;;;;;;;;35.50;31.25;;;;;16.26;33.74;99354.63;5029841;28;8846;-75
2022/03/29 00:09:23;;;;;;;;;37.50;31.25;;;;;16.23;33.77;99356.47;5030035;28;8826;-76
2022/03/29 00:12:10;;;;;;;;;38.00;32.00;;;;;16.18;33.85;99348.66;5048853;28;9684;-76
2022/03/29 00:14:39;;;;;;;;;29.75;28.50;;;;;16.25;33.82;99334.44;5033337;28;8850;-77
2022/03/29 00:17:08;;;;;;;;;32.50;30.50;;;;;16.31;33.37;99334.31;5048413;28;8938;-75
2022/03/29 00:19:38;;;;;;;;;34.75;30.75;;;;;16.41;33.38;99332.28;5068852;28;8843;-75
2022/03/29 00:22:07;;;;;;;;;28.25;25.00;;;;;16.45;33.25;99331.28;5068922;28;8957;-75
2022/03/29 00:24:36;;;;;;;;;35.00;32.25;;;;;16.43;33.47;99326.97;5067241;28;8940;-75
2022/03/29 00:27:06;;;;;;;;;33.25;32.25;;;;;16.41;33.55;99327.03;5068351;28;8865;-76
2022/03/29 00:29:35;;;;;;;;;28.50;25.50;;;;;16.44;33.39;99328.69;5083753;28;8854;-75
2022/03/29 00:32:05;;;;;;;;;28.50;28.50;;;;;16.49;33.24;99329.44;5092592;28;8880;-76
2022/03/29 00:34:36;;;;;;;;;37.25;32.75;;;;;16.50;33.52;99318.88;5088763;28;8831;-77
2022/03/29 00:37:07;;;;;;;;;41.50;36.00;;;;;16.52;33.55;99316.16;5088695;28;8859;-75
2022/03/29 00:39:36;;;;;;;;;34.25;31.75;;;;;16.52;33.67;99324.94;5086134;28;8867;-74
2022/03/29 00:42:05;;;;;;;;;36.00;32.50;;;;;16.46;33.75;99311.09;5088641;28;9054;-75
2022/03/29 00:44:38;;;;;;;;;36.50;34.50;;;;;16.44;33.46;99313.75;5058340;28;9581;-74
2022/03/29 00:47:07;;;;;;;;;41.00;34.75;;;;;16.44;33.87;99310.25;5086925;28;8979;-76
2022/03/29 00:49:36;;;;;;;;;41.50;37.25;;;;;16.41;33.65;99305.97;5086884;28;8856;-74
2022/03/29 00:52:08;;;;;;;;;36.00;34.00;;;;;16.41;33.86;99308.59;5087589;28;8983;-75
2022/03/29 00:54:41;;;;;;;;;41.00;34.75;;;;;16.41;33.65;99311.22;5090402;28;8936;-73
2022/03/29 00:57:11;;;;;;;;;35.00;33.50;;;;;16.41;33.71;99300.69;5090667;28;8851;-76
2022/03/29 00:59:41;;;;;;;;;40.00;35.75;;;;;16.40;33.80;99295.47;5108520;28;8854;-76
2022/03/29 01:02:10;;;;;;;;;46.50;36.75;;;;;16.38;33.81;99299.00;5108590;28;8970;-75
2022/03/29 01:04:39;;;;;;;;;42.75;36.25;;;;;16.35;33.79;99299.09;5108640;28;8842;-76
2022/03/29 01:07:10;;;;;;;;;37.75;35.25;;;;;16.32;33.77;99291.28;5089313;28;8974;-75
2022/03/29 01:09:40;;;;;;;;;37.25;35.50;;;;;16.30;34.21;99295.72;5090356;28;8963;-75
2022/03/29 01:12:10;;;;;;;;;36.75;33.50;;;;;16.28;33.82;99289.66;5090035;28;8862;-76
2022/03/29 01:14:40;;;;;;;;;31.00;28.50;;;;;16.26;34.03;99285.34;5039269;28;8866;-74
2022/03/29 01:19:58;;;;;;;;;36.25;35.00;;;;;16.24;34.11;99284.50;5090586;28;8990;-75
2022/03/29 01:22:30;;;;;;;;;39.25;34.50;;;;;16.21;34.17;99288.09;5107225;28;8847;-75
2022/03/29 01:24:59;;;;;;;;;37.50;35.00;;;;;16.15;34.29;99283.00;5088023;28;8848;-75
2022/03/29 01:27:32;;;;;;;;;39.50;36.00;;;;;16.12;34.35;99278.69;5070138;28;8880;-75
2022/03/29 01:30:02;;;;;;;;;34.75;33.25;;;;;16.13;34.25;99279.56;5061230;28;8895;-75
2022/03/29 01:32:32;;;;;;;;;32.75;31.25;;;;;16.13;34.29;99272.53;5069969;28;8889;-75
2022/03/29 01:35:01;;;;;;;;;36.50;33.50;;;;;16.12;34.43;99273.44;5036422;28;8879;-74
2022/03/29 01:37:31;;;;;;;;;45.25;36.50;;;;;16.12;34.34;99265.56;5088057;28;8837;-74
2022/03/29 01:40:04;;;;;;;;;36.75;35.25;;;;;16.08;34.47;99263.88;5087888;28;8849;-75
2022/03/29 01:42:33;;;;;;;;;35.50;31.25;;;;;16.07;34.38;99266.59;5087969;28;8856;-76
2022/03/29 01:45:02;;;;;;;;;40.50;35.25;;;;;16.06;34.57;99254.31;5088190;28;8860;-76
2022/03/29 01:47:31;;;;;;;;;35.00;32.75;;;;;16.01;34.63;99250.94;5087670;28;8860;-74
2022/03/29 01:50:00;;;;;;;;;36.25;35.00;;;;;16.02;34.70;99255.31;5069025;28;8865;-75
2022/03/29 01:52:28;;;;;;;;;38.25;34.75;;;;;15.98;34.82;99250.13;5087513;28;8849;-74
2022/03/29 01:54:59;;;;;;;;;41.75;36.50;;;;;15.91;34.96;99248.56;5087648;28;8871;-74
2022/03/29 01:57:29;;;;;;;;;45.00;36.50;;;;;15.91;34.98;99243.31;5085484;28;8834;-75
2022/03/29 02:02:47;;;;;;;;;34.75;33.00;;;;;15.91;34.94;99240.66;5109746;28;8854;-75
2022/03/29 02:05:16;;;;;;;;;34.25;33.25;;;;;15.88;35.18;99235.53;5111543;28;8868;-75
2022/03/29 02:07:44;;;;;;;;;42.00;35.75;;;;;15.86;35.03;99247.84;5111774;28;8961;-75
2022/03/29 02:10:18;;;;;;;;;37.50;33.50;;;;;15.87;34.99;99239.03;5106715;28;8836;-75
2022/03/29 02:12:49;;;;;;;;;38.50;35.25;;;;;15.85;35.10;99235.59;5073496;28;8856;-75
2022/03/29 02:15:18;;;;;;;;;38.50;35.50;;;;;15.79;35.16;99226.09;5106896;28;9615;-74
2022/03/29 02:17:49;;;;;;;;;44.25;35.75;;;;;15.74;35.16;99221.88;5111549;28;8893;-75
2022/03/29 02:20:18;;;;;;;;;39.00;35.00;;;;;15.73;35.28;99223.63;5111766;28;8931;-76
2022/03/29 02:22:48;;;;;;;;;36.50;31.25;;;;;15.71;35.43;99222.78;5100832;28;8877;-75
2022/03/29 02:25:18;;;;;;;;;44.00;37.25;;;;;15.70;35.67;99218.41;5091245;28;8868;-75
2022/03/29 02:27:47;;;;;;;;;40.50;35.75;;;;;15.67;35.54;99223.78;5090937;28;8885;-76
2022/03/29 02:30:17;;;;;;;;;43.00;36.50;;;;;15.68;35.52;99224.63;5073691;28;8825;-75
2022/03/29 02:32:46;;;;;;;;;47.50;39.00;;;;;15.66;35.78;99223.81;5104631;28;9066;-75
2022/03/29 02:35:14;;;;;;;;;37.25;33.75;;;;;15.65;35.82;99216.81;5111785;28;8873;-75
2022/03/29 02:37:44;;;;;;;;;41.50;36.25;;;;;15.63;35.73;99216.84;5112045;28;8841;-75
2022/03/29 02:40:13;;;;;;;;;45.00;36.00;;;;;15.61;35.67;99218.66;5042426;28;8834;-75
2022/03/29 02:42:45;;;;;;;;;34.75;33.00;;;;;15.57;35.95;99219.66;5112077;28;8865;-74
2022/03/29 02:45:15;;;;;;;;;45.75;38.25;;;;;15.54;36.00;99219.75;5093216;28;8957;-75
2022/03/29 02:47:45;;;;;;;;;40.50;36.00;;;;;15.50;35.91;99221.59;5072407;28;8894;-74
2022/03/29 02:50:15;;;;;;;;;43.50;38.25;;;;;15.47;36.05;99223.44;5090517;28;8848;-75
2022/03/29 02:52:46;;;;;;;;;39.00;32.75;;;;;15.45;35.77;99220.00;5069042;28;9719;-76
2022/03/29 02:55:14;;;;;;;;;39.50;32.75;;;;;15.44;35.87;99221.72;5069046;28;8854;-75
2022/03/29 02:57:44;;;;;;;;;45.00;39.00;;;;;15.40;36.38;99222.72;5079756;28;8975;-75
2022/03/29 03:00:17;;;;;;;;;41.00;35.75;;;;;15.33;36.48;99222.03;5090333;28;8843;-75
2022/03/29 03:02:48;;;;;;;;;43.00;37.00;;;;;15.25;36.66;99215.22;5071299;28;8902;-76
2022/03/29 03:05:19;;;;;;;;;29.50;24.75;;;;;15.18;36.78;99228.50;5089106;28;8866;-75
2022/03/29 03:07:49;;;;;;;;;37.75;35.75;;;;;15.20;36.56;99239.00;5088997;28;8851;-75
2022/03/29 03:10:18;;;;;;;;;50.75;41.25;;;;;15.18;36.96;99236.41;5038045;28;8939;-75
2022/03/29 03:12:49;;;;;;;;;48.00;39.25;;;;;15.16;36.73;99235.56;5071170;28;8850;-75
2022/03/29 03:15:20;;;;;;;;;49.75;41.25;;;;;15.14;36.91;99239.13;5069857;28;8865;-76
2022/03/29 03:17:52;;;;;;;;;51.50;40.75;;;;;15.13;36.95;99242.66;5069229;28;8876;-76
2022/03/29 03:20:21;;;;;;;;;49.25;41.50;;;;;15.08;37.17;99240.13;5078399;28;8816;-75
2022/03/29 03:22:51;;;;;;;;;84.25;74.50;;;;;15.05;37.45;99244.59;5089488;28;8903;-77
2022/03/29 03:25:20;;;;;;;;;35.00;31.50;;;;;14.69;38.09;99242.78;5089783;28;10995;-74
2022/03/29 03:27:50;;;;;;;;;44.75;38.75;;;;;14.73;37.98;99241.81;5089612;28;8859;-74
2022/03/29 03:30:19;;;;;;;;;47.00;39.25;;;;;14.71;37.84;99246.25;5070508;28;8867;-75
2022/03/29 03:32:48;;;;;;;;;43.50;37.25;;;;;14.69;37.85;99240.16;5088649;28;9112;-74
2022/03/29 03:35:19;;;;;;;;;44.75;39.50;;;;;14.65;37.86;99246.38;5088799;28;8882;-75
2022/03/29 03:37:48;;;;;;;;;53.75;43.75;;;;;14.60;38.45;99243.00;5088259;28;8859;-74
2022/03/29 03:40:18;;;;;;;;;50.50;41.50;;;;;14.55;38.37;99237.78;5088203;28;8871;-75
2022/03/29 03:42:47;;;;;;;;;52.25;43.00;;;;;14.53;38.15;99236.09;5089324;28;8852;-74
2022/03/29 03:45:17;;;;;;;;;45.00;37.75;;;;;14.49;38.52;99242.31;5070592;28;9589;-74
2022/03/29 03:47:47;;;;;;;;;50.50;42.75;;;;;14.46;38.36;99239.75;5087391;28;8852;-74
2022/03/29 03:50:16;;;;;;;;;54.50;43.50;;;;;14.42;38.62;99237.22;5060852;28;8854;-75
2022/03/29 03:52:45;;;;;;;;;46.00;38.00;;;;;14.40;38.81;99238.13;5096600;28;8916;-74
2022/03/29 03:55:13;;;;;;;;;50.00;41.50;;;;;14.34;39.39;99244.38;5109195;28;9024;-75
2022/03/29 03:57:42;;;;;;;;;81.00;65.25;;;;;14.31;39.21;99241.81;5109209;28;8850;-75
2022/03/29 04:00:12;;;;;;;;;49.50;40.75;;;;;14.28;38.91;99236.63;5109310;28;10390;-75
2022/03/29 04:02:42;;;;;;;;;49.50;41.00;;;;;14.26;39.45;99241.03;5073583;28;8976;-75
2022/03/29 04:05:12;;;;;;;;;50.00;39.75;;;;;14.26;39.64;99234.94;5109126;28;8956;-74
2022/03/29 04:07:41;;;;;;;;;47.75;39.75;;;;;14.22;39.64;99236.75;5090019;28;8837;-75
2022/03/29 04:10:11;;;;;;;;;49.75;41.50;;;;;14.18;39.57;99243.81;5109234;28;8865;-75
2022/03/29 04:12:39;;;;;;;;;51.75;42.50;;;;;14.14;39.94;99249.16;5091661;28;8873;-75
2022/03/29 04:15:09;;;;;;;;;54.50;42.50;;;;;14.11;39.34;99244.84;5088581;28;8853;-74
2022/03/29 04:17:38;;;;;;;;;57.25;46.75;;;;;13.92;39.31;99246.94;5088694;28;9003;-76
2022/03/29 04:20:10;;;;;;;;;49.50;42.00;;;;;13.94;39.61;99244.31;5088164;28;9684;-75
2022/03/29 04:22:39;;;;;;;;;50.75;41.75;;;;;13.86;40.51;99240.97;5020684;28;8941;-75
2022/03/29 04:25:09;;;;;;;;;51.25;42.50;;;;;13.86;39.83;99240.97;5091345;28;8873;-76
2022/03/29 04:27:37;;;;;;;;;52.00;42.25;;;;;13.82;40.43;99248.88;5039801;28;8913;-74
2022/03/29 04:30:09;;;;;;;;;58.50;45.00;;;;;13.83;40.20;99247.13;5056146;28;8888;-75
2022/03/29 04:32:37;;;;;;;;;55.50;44.00;;;;;13.81;39.98;99249.75;5039593;28;8959;-75
2022/03/29 04:35:09;;;;;;;;;51.75;44.50;;;;;13.84;39.95;99247.09;5088396;28;8876;-74
2022/03/29 04:37:44;;;;;;;;;61.00;49.00;;;;;13.83;39.95;99254.97;5070400;28;8861;-75
2022/03/29 04:40:14;;;;;;;;;58.25;47.75;;;;;13.79;39.98;99248.06;5053477;28;9618;-75
2022/03/29 04:42:46;;;;;;;;;57.25;45.25;;;;;13.77;40.36;99245.47;5100753;28;8875;-75
2022/03/29 04:45:16;;;;;;;;;67.67;52.00;;;;;13.80;40.13;99249.81;5088030;28;8883;-75
2022/03/29 04:47:47;;;;;;;;;57.25;47.25;;;;;13.81;40.48;99252.38;5087072;28;8984;-75
2022/03/29 04:50:17;;;;;;;;;56.50;47.75;;;;;13.82;40.16;99248.03;5069854;28;8972;-76
2022/03/29 04:52:47;;;;;;;;;57.25;46.75;;;;;13.80;40.79;99248.06;5069693;28;8881;-76
2022/03/29 04:55:16;;;;;;;;;55.25;44.75;;;;;13.71;41.11;99242.97;5070208;28;8864;-77
2022/03/29 04:57:47;;;;;;;;;52.75;44.50;;;;;13.74;40.65;99242.03;5069624;28;8876;-75
2022/03/29 05:00:20;;;;;;;;;58.75;48.25;;;;;13.75;40.94;99247.25;5088551;28;8955;-75
2022/03/29 05:02:50;;;;;;;;;62.50;50.75;;;;;13.78;40.63;99241.09;5108373;28;8847;-76
2022/03/29 05:05:20;;;;;;;;;58.25;47.25;;;;;13.80;40.49;99247.19;5047907;28;8890;-74
2022/03/29 05:07:49;;;;;;;;;56.50;48.00;;;;;13.81;40.17;99248.91;5048407;28;8864;-75
2022/03/29 05:10:18;;;;;;;;;62.75;50.00;;;;;13.86;40.06;99243.59;5065155;28;8887;-76
2022/03/29 05:12:49;;;;;;;;;58.50;48.50;;;;;13.86;40.28;99257.56;5064875;28;8836;-75
2022/03/29 05:15:19;;;;;;;;;59.67;49.33;;;;;13.79;40.57;99256.78;5044531;28;8974;-76
2022/03/29 05:17:48;;;;;;;;;57.25;45.00;;;;;13.74;40.47;99260.38;5058553;28;8851;-75
2022/03/29 05:20:18;;;;;;;;;64.33;51.00;;;;;13.84;40.84;99261.97;5064827;28;8852;-71
2022/03/29 05:22:49;;;;;;;;;63.25;50.00;;;;;13.93;40.38;99260.91;5047617;28;9735;-75
2022/03/29 05:25:21;;;;;;;;;65.00;52.25;;;;;14.01;40.64;99264.28;5064534;28;8851;-69
2022/03/29 05:27:50;;;;;;;;;65.50;52.00;;;;;14.08;40.03;99270.25;5064616;28;8844;-76
2022/03/29 05:30:21;;;;;;;;;64.33;52.00;;;;;14.11;40.38;99273.69;5064723;28;8868;-70
2022/03/29 05:32:51;;;;;;;;;75.33;57.67;;;;;13.66;40.86;99268.38;5063190;28;9333;-72
2022/03/29 05:35:20;;;;;;;;;65.00;53.00;;;;;13.56;41.39;99274.69;5064283;28;9553;-72
2022/03/29 05:37:50;;;;;;;;;70.00;56.33;;;;;13.60;40.94;99277.22;5066440;28;9328;-70
2022/03/29 05:40:19;;;;;;;;;75.75;58.50;;;;;13.52;41.55;99273.88;5068227;28;9405;-73
2022/03/29 05:42:48;;;;;;;;;72.75;57.75;;;;;13.41;41.65;99276.66;5077842;28;9716;-70
2022/03/29 05:45:17;;;;;;;;;77.25;60.25;;;;;13.47;41.54;99278.31;5090785;28;9716;-74
2022/03/29 05:50:32;;;;;;;;;72.25;57.50;;;;;13.48;41.27;99277.44;5090852;28;9601;-71
2022/03/29 05:53:03;;;;;;;;;72.00;57.25;;;;;13.80;40.92;99276.03;5091054;28;10435;-73
2022/03/29 05:55:31;;;;;;;;;73.25;57.50;;;;;13.88;40.15;99276.75;5101221;28;9607;-72
2022/03/29 05:58:00;;;;;;;;;71.25;57.25;;;;;13.91;40.91;99281.06;5110313;28;9654;-70
2022/03/29 06:00:31;;;;;;;;;78.25;62.25;;;;;14.11;40.31;99284.16;5055673;28;9634;-71
2022/03/29 06:03:00;;;;;;;;;77.75;63.75;;;;;13.91;40.62;99275.81;5110434;28;9875;-71
2022/03/29 06:05:29;;;;;;;;;77.00;59.75;;;;;14.18;40.31;99282.31;5109357;28;10120;-71
2022/03/29 06:07:59;;;;;;;;;78.25;60.25;;;;;14.21;39.83;99279.59;5109695;28;10636;-70
2022/03/29 06:10:29;;;;;;;;;79.50;64.00;;;;;13.68;41.02;99274.47;5110379;28;10795;-72
2022/03/29 06:12:58;;;;;;;;;79.25;62.50;;;;;13.87;41.16;99280.25;5088361;28;10060;-71
2022/03/29 06:15:27;;;;;;;;;80.25;65.75;;;;;13.84;40.72;99288.19;5058271;28;9953;-72
2022/03/29 06:17:56;;;;;;;;;76.50;63.25;;;;;13.98;40.22;99275.66;5059279;28;9904;-71
2022/03/29 06:20:25;;;;;;;;;76.50;62.75;;;;;14.18;39.94;99277.91;5075933;28;9958;-74
2022/03/29 06:22:54;;;;;;;;;67.25;50.25;;;;;14.34;40.00;99278.47;5092276;28;10022;-74
2022/03/29 06:25:22;;;;;;;;;76.25;58.25;;;;;14.24;40.34;99277.78;5091437;28;9879;-73
2022/03/29 06:27:53;;;;;;;;;73.75;60.00;;;;;14.55;40.06;99273.66;5071952;28;10585;-72
2022/03/29 06:30:22;;;;;;;;;72.25;58.75;;;;;14.71;39.51;99276.88;5093782;28;9863;-72
2022/03/29 06:32:52;;;;;;;;;73.50;58.75;;;;;14.89;38.90;99275.59;5092504;28;9808;-72
2022/03/29 06:35:22;;;;;;;;;79.75;61.25;;;;;15.11;38.67;99268.97;5110854;28;9819;-73
2022/03/29 06:37:52;;;;;;;;;80.75;65.25;;;;;15.33;38.22;99260.53;5096710;28;10053;-75
2022/03/29 06:40:21;;;;;;;;;74.50;59.25;;;;;15.28;37.64;99260.66;5089136;28;10158;-72
2022/03/29 06:42:50;;;;;;;;;76.00;61.25;;;;;15.44;37.88;99265.53;5089795;28;10152;-72
2022/03/29 06:45:21;;;;;;;;;75.25;61.00;;;;;15.52;37.56;99253.94;5069820;28;9975;-72
2022/03/29 06:47:50;;;;;;;;;74.50;59.50;;;;;15.76;37.67;99248.97;5088983;28;9911;-72
2022/03/29 06:50:18;;;;;;;;;76.25;63.25;;;;;15.82;36.88;99259.31;5043579;28;11035;-73
2022/03/29 06:52:48;;;;;;;;;75.00;60.25;;;;;15.72;37.15;99256.03;5091665;28;10053;-71
2022/03/29 06:55:18;;;;;;;;;77.50;63.25;;;;;16.03;36.81;99257.03;5090771;28;10131;-72
2022/03/29 06:57:47;;;;;;;;;82.25;70.75;;;;;16.09;36.55;99263.00;5090288;28;10136;-72
2022/03/29 07:00:17;;;;;;;;;70.75;57.00;;;;;16.34;36.23;99252.63;5086093;28;10483;-72
2022/03/29 07:02:48;;;;;;;;;78.00;63.00;;;;;16.20;36.65;99262.69;5101055;28;10498;-71
2022/03/29 07:05:19;;;;;;;;;78.00;67.75;;;;;16.32;35.55;99251.81;5074285;28;10370;-72
2022/03/29 07:07:48;;;;;;;;;84.25;77.25;;;;;16.07;35.97;99254.28;5098133;28;10499;-71
2022/03/29 07:13:06;;;;;;;;;80.50;70.50;;;;;16.42;36.33;99249.78;5025584;28;10668;-71
2022/03/29 07:15:34;;;;;;;;;83.00;73.25;;;;;16.44;36.33;99242.69;5025041;28;10630;-73
2022/03/29 07:18:05;;;;;;;;;74.50;60.50;;;;;16.76;35.55;99249.63;5026719;28;10704;-72
2022/03/29 07:20:34;;;;;;;;;83.00;74.50;;;;;17.01;35.57;99246.25;5026291;28;10596;-70
2022/03/29 07:23:04;;;;;;;;;82.00;73.75;;;;;17.29;35.41;99245.38;5026045;28;11165;-76
2022/03/29 07:25:33;;;;;;;;;81.00;71.00;;;;;17.47;35.03;99239.50;5025724;28;10710;-74
2022/03/29 07:28:03;;;;;;;;;82.00;72.75;;;;;17.55;34.63;99236.59;5009820;28;10789;-76
2022/03/29 07:30:34;;;;;;;;;83.25;70.75;;;;;17.77;34.75;99233.22;4977238;28;11386;-75
2022/03/29 07:33:04;;;;;;;;;79.25;68.00;;;;;17.95;33.90;99244.94;5010115;28;10607;-75
2022/03/29 07:35:34;;;;;;;;;79.75;66.75;;;;;17.69;33.94;99237.00;4993796;28;11215;-75
2022/03/29 07:38:04;;;;;;;;;81.75;74.75;;;;;17.57;34.42;99232.13;5026491;28;10938;-75
2022/03/29 07:40:32;;;;;;;;;80.25;70.50;;;;;17.73;34.49;99235.09;4993652;28;10935;-74
2022/03/29 07:43:01;;;;;;;;;78.25;68.50;;;;;17.97;34.16;99230.75;5025828;28;10664;-75
2022/03/29 07:45:30;;;;;;;;;66.00;53.00;;;;;17.92;33.91;99228.31;5009325;28;10968;-76
2022/03/29 07:48:02;;;;;;;;;83.75;73.50;;;;;17.95;33.46;99229.97;5009512;28;10910;-80
2022/03/29 07:50:53;;;;;;;;;84.50;78.25;;;;;17.57;34.28;99220.72;5068349;28;11235;-74
2022/03/29 07:53:24;;;;;;;;;82.50;74.50;;;;;17.79;34.66;99220.81;5071963;28;11181;-75
2022/03/29 07:55:54;;;;;;;;;79.50;72.50;;;;;17.45;34.43;99220.22;5105107;28;10928;-74
2022/03/29 07:58:23;;;;;;;;;80.00;73.00;;;;;17.68;33.86;99223.84;5090287;28;10875;-75
2022/03/29 08:00:52;;;;;;;;;80.00;72.75;;;;;17.67;34.01;99215.06;5104685;28;10925;-76
2022/03/29 08:03:22;;;;;;;;;78.50;67.75;;;;;17.62;34.21;99209.09;5089790;28;11529;-73
2022/03/29 08:05:52;;;;;;;;;81.50;70.00;;;;;17.92;33.66;99208.97;5107543;28;10626;-79
2022/03/29 08:08:21;;;;;;;;;79.00;69.25;;;;;17.68;34.46;99205.41;5090378;28;10797;-75
2022/03/29 08:10:50;;;;;;;;;81.75;74.25;;;;;18.05;33.83;99209.38;5090175;28;10546;-74
2022/03/29 08:13:20;;;;;;;;;82.50;73.00;;;;;18.29;33.56;99202.31;5108676;28;11032;-73
2022/03/29 08:15:52;;;;;;;;;79.25;69.25;;;;;18.59;33.00;99195.00;5089385;28;10850;-74
2022/03/29 08:18:21;;;;;;;;;80.50;72.50;;;;;18.39;32.28;99200.19;5108423;28;11349;-75
2022/03/29 08:20:49;;;;;;;;;78.50;70.25;;;;;18.63;31.83;99199.25;5108062;28;10798;-75
2022/03/29 08:23:20;;;;;;;;;77.25;67.25;;;;;18.43;32.15;99200.03;5076360;28;10725;-74
2022/03/29 08:25:48;;;;;;;;;79.25;73.00;;;;;18.47;31.88;99195.50;5072848;28;10888;-74
2022/03/29 08:28:19;;;;;;;;;82.50;71.25;;;;;18.48;32.28;99192.78;5107997;28;10694;-74
2022/03/29 08:30:47;;;;;;;;;79.50;72.00;;;;;18.78;31.38;99196.94;5089744;28;10816;-74
2022/03/29 08:33:16;;;;;;;;;76.50;67.75;;;;;18.26;32.39;99190.13;5105678;28;10856;-75
2022/03/29 08:35:45;;;;;;;;;78.25;70.00;;;;;18.61;31.73;99192.31;5090267;28;10721;-72
2022/03/29 08:38:13;;;;;;;;;76.25;64.00;;;;;18.84;31.63;99176.44;5087103;28;10928;-74
2022/03/29 08:41:00;;;;;;;;;78.00;69.75;;;;;18.78;31.10;99183.72;5027285;28;10467;-72
2022/03/29 08:43:30;;;;;;;;;72.75;62.50;;;;;18.73;30.82;99188.31;5092730;28;10595;-72
2022/03/29 08:46:00;;;;;;;;;81.50;70.50;;;;;18.37;31.56;99175.63;5107385;28;10599;-73
2022/03/29 08:48:31;;;;;;;;;75.00;63.00;;;;;18.76;31.81;99172.38;5099460;28;10873;-73
2022/03/29 08:51:01;;;;;;;;;76.00;65.25;;;;;18.44;31.93;99177.13;5087537;28;10342;-73
2022/03/29 08:53:50;;;;;;;;;75.00;63.00;;;;;18.10;31.58;99176.63;5088053;28;10448;-73
2022/03/29 08:56:20;;;;;;;;;76.00;65.75;;;;;18.26;31.77;99173.41;5088079;28;10167;-73
2022/03/29 08:58:49;;;;;;;;;70.75;57.75;;;;;18.67;31.26;99165.66;5087717;28;10561;-72
2022/03/29 09:01:20;;;;;;;;;75.00;64.25;;;;;18.60;30.43;99170.34;5102861;28;10222;-74
2022/03/29 09:04:04;;;;;;;;;76.50;64.00;;;;;18.10;31.13;99168.69;5105011;28;10295;-73
2022/03/29 09:06:33;;;;;;;;;70.75;60.00;;;;;18.49;30.79;99161.97;5085609;28;10342;-73
2022/03/29 09:09:02;;;;;;;;;72.25;61.00;;;;;18.77;30.01;99153.81;5087601;28;10061;-73
2022/03/29 09:11:44;;;;;;;;;74.00;59.00;;;;;18.59;29.12;99158.03;5089155;28;10314;-75
2022/03/29 09:14:13;;;;;;;;;75.25;62.00;;;;;17.91;31.28;99152.69;5091660;28;10285;-75
2022/03/29 09:16:42;;;;;;;;;72.00;57.50;;;;;18.11;31.40;99148.47;5088148;28;10317;-73
2022/03/29 09:19:12;;;;;;;;;72.00;59.75;;;;;18.32;29.69;99152.06;5091757;28;10017;-74
2022/03/29 09:21:42;;;;;;;;;75.00;63.25;;;;;18.56;29.66;99139.66;5073551;28;10051;-73
2022/03/29 09:24:14;;;;;;;;;67.25;53.75;;;;;18.79;29.19;99137.88;5091512;28;9931;-72
2022/03/29 09:26:46;;;;;;;;;73.00;59.00;;;;;18.48;29.36;99141.75;5091268;28;9862;-73
2022/03/29 09:29:16;;;;;;;;;68.75;56.00;;;;;18.36;29.87;99137.81;5066030;28;9968;-72
2022/03/29 09:31:46;;;;;;;;;70.50;57.75;;;;;18.62;29.74;99136.81;5094380;28;9967;-73
2022/03/29 09:34:17;;;;;;;;;69.00;56.25;;;;;19.05;29.50;99123.63;5091643;28;9642;-73
2022/03/29 09:36:48;;;;;;;;;71.50;58.00;;;;;19.24;29.29;99124.59;5105756;28;9857;-74
2022/03/29 09:39:34;;;;;;;;;68.50;56.50;;;;;19.38;28.67;99120.47;5092006;28;9788;-75
2022/03/29 09:42:08;;;;;;;;;72.75;62.50;;;;;19.25;28.70;99107.78;5075994;28;10100;-78
2022/03/29 09:44:44;;;;;;;;;73.25;59.75;;;;;19.64;29.08;99106.97;5110737;28;10037;-75
2022/03/29 09:47:15;;;;;;;;;67.75;54.75;;;;;19.81;27.09;99092.13;5111291;28;9875;-74
2022/03/29 09:49:57;;;;;;;;;67.25;53.25;;;;;19.67;26.59;99095.38;5092075;28;9784;-72
2022/03/29 09:52:27;;;;;;;;;70.00;58.25;;;;;19.62;27.48;99092.06;5064262;28;9953;-71
2022/03/29 09:55:21;;;;;;;;;66.50;53.00;;;;;18.86;28.79;99110.31;5089308;28;10215;-72
2022/03/29 09:57:54;;;;;;;;;69.00;56.25;;;;;18.78;29.40;99104.47;5067625;28;10098;-72
2022/03/29 10:00:36;;;;;;;;;68.25;54.50;;;;;19.05;28.92;99097.19;5036088;28;9883;-73
2022/03/29 10:03:09;;;;;;;;;72.25;59.50;;;;;18.62;28.93;99102.47;5066702;28;9882;-72
2022/03/29 10:05:42;;;;;;;;;68.25;53.75;;;;;19.04;29.40;99091.06;5016859;28;10066;-73
2022/03/29 10:11:05;;;;;;;;;65.50;52.50;;;;;19.15;29.45;99077.41;5067609;28;9967;-73
2022/03/29 10:13:37;;;;;;;;;70.00;55.50;;;;;19.20;29.49;99075.38;5067422;28;9819;-73
2022/03/29 10:16:09;;;;;;;;;68.00;54.00;;;;;19.68;28.97;99066.22;5066752;28;9841;-73
2022/03/29 10:18:39;;;;;;;;;68.50;54.00;;;;;19.71;28.52;99069.66;5068128;28;9900;-73
2022/03/29 10:21:10;;;;;;;;;66.00;53.50;;;;;20.15;28.64;99064.97;5068050;28;9981;-73
2022/03/29 10:23:39;;;;;;;;;66.00;53.50;;;;;20.44;27.01;99068.00;5066814;28;9919;-72
2022/03/29 10:26:09;;;;;;;;;68.50;52.75;;;;;20.40;27.32;99066.44;5067651;28;9878;-70
2022/03/29 10:28:39;;;;;;;;;65.50;53.00;;;;;20.16;27.06;99053.44;5067660;28;9903;-74
2022/03/29 10:31:33;;;;;;;;;69.25;56.50;;;;;20.03;27.24;99054.94;5067626;28;9494;-75
2022/03/29 10:34:16;;;;;;;;;66.25;52.75;;;;;19.87;27.75;99054.81;5074548;28;9862;-76
2022/03/29 10:37:21;;;;;;;;;70.00;57.50;;;;;19.58;28.34;99048.19;5090706;28;9670;-77
2022/03/29 10:39:53;;;;;;;;;64.25;52.75;;;;;19.86;27.64;99047.78;5106334;28;9848;-74
2022/03/29 10:42:36;;;;;;;;;70.00;56.75;;;;;19.46;27.99;99045.16;5090771;28;9863;-77
2022/03/29 10:45:13;;;;;;;;;67.00;53.75;;;;;19.34;28.23;99039.56;5056730;28;10050;-78
2022/03/29 10:48:13;;;;;;;;;67.50;54.00;;;;;19.23;28.57;99043.53;5104837;28;10752;-77
2022/03/29 10:50:54;;;;;;;;;69.75;54.50;;;;;19.38;28.76;99028.78;5091836;28;9797;-76
2022/03/29 10:53:25;;;;;;;;;67.75;54.00;;;;;19.92;28.36;99020.19;5108406;28;9877;-74
2022/03/29 10:56:19;;;;;;;;;65.50;53.00;;;;;20.30;26.74;99026.28;5109776;28;9718;-75
2022/03/29 10:59:12;;;;;;;;;65.00;52.25;;;;;20.56;26.37;99018.84;5109959;28;10700;-74
2022/03/29 11:01:43;;;;;;;;;70.50;57.50;;;;;20.57;26.75;99013.47;5110449;28;9715;-76
2022/03/29 11:04:26;;;;;;;;;65.00;51.25;;;;;20.79;26.23;99007.13;5109101;28;9874;-75
2022/03/29 11:07:14;;;;;;;;;67.00;53.00;;;;;20.63;25.73;99004.41;5110212;28;9570;-74
2022/03/29 11:09:47;;;;;;;;;64.00;51.25;;;;;21.10;25.76;98990.50;5110446;28;9733;-74
2022/03/29 11:12:44;;;;;;;;;65.25;52.75;;;;;21.35;24.98;98990.03;5110169;28;9729;-75
2022/03/29 11:15:46;;;;;;;;;65.75;52.50;;;;;20.48;25.41;98984.78;4974850;28;9714;-73
2022/03/29 11:18:40;;;;;;;;;63.00;50.75;;;;;20.13;25.78;98973.28;4990928;28;9702;-76
2022/03/29 11:21:10;;;;;;;;;66.75;54.00;;;;;20.35;25.76;98965.16;4991623;28;9872;-73
2022/03/29 11:23:41;;;;;;;;;65.25;52.00;;;;;20.77;26.36;98958.63;5008138;28;10140;-74
2022/03/29 11:26:12;;;;;;;;;62.25;50.50;;;;;21.17;25.37;98953.88;4993498;28;9894;-74
2022/03/29 11:28:49;;;;;;;;;68.50;55.75;;;;;21.33;24.33;98943.31;4987330;28;10282;-73
2022/03/29 11:31:18;;;;;;;;;64.25;50.75;;;;;21.76;24.98;98941.81;4987230;28;10207;-75
2022/03/29 11:33:51;;;;;;;;;65.50;54.75;;;;;22.02;24.15;98931.50;4987191;28;9763;-73
2022/03/29 11:36:20;;;;;;;;;65.25;53.25;;;;;22.28;24.32;98922.06;4986435;28;10129;-75
2022/03/29 11:38:49;;;;;;;;;70.50;56.75;;;;;22.67;23.97;98922.44;4987848;28;9886;-75
2022/03/29 11:41:23;;;;;;;;;67.25;54.50;;;;;23.08;23.43;98924.41;4987521;28;9894;-75
2022/03/29 11:43:57;;;;;;;;;69.50;54.75;;;;;23.11;22.15;98917.06;4987327;28;9706;-73
2022/03/29 11:46:26;;;;;;;;;70.75;55.75;;;;;23.16;22.41;98909.69;4987174;28;9873;-72
2022/03/29 11:48:57;;;;;;;;;67.75;53.00;;;;;22.39;22.54;98905.50;4987253;28;9801;-76
2022/03/29 11:51:26;;;;;;;;;68.00;53.67;;;;;22.70;22.99;98909.84;4983606;28;9591;-74
2022/03/29 11:53:58;;;;;;;;;66.50;54.00;;;;;23.16;22.37;98901.69;5088701;28;9489;-76
2022/03/29 11:56:27;;;;;;;;;64.75;51.50;;;;;23.57;21.83;98897.34;5053387;28;9577;-74